createdAt,value
2019-02-27T00:01:20.170Z,51.60
2019-02-27T00:03:49.520Z,51.40
2019-02-27T00:06:18.903Z,51.20
2019-02-27T00:08:48.283Z,51.30
2019-02-27T00:11:17.742Z,51.40
2019-02-27T00:13:47.141Z,51.50
2019-02-27T00:16:16.517Z,51.30
2019-02-27T00:18:45.959Z,51.00
2019-02-27T00:21:15.398Z,51.00
2019-02-27T00:23:44.796Z,51.00
2019-02-27T00:26:14.190Z,50.90
2019-02-27T00:28:43.546Z,50.60
2019-02-27T00:31:12.898Z,50.50
2019-02-27T00:33:42.271Z,50.50
2019-02-27T00:36:12.301Z,50.70
2019-02-27T00:38:42.410Z,50.40
2019-02-27T00:41:12.983Z,50.40
2019-02-27T00:43:42.551Z,50.40
2019-02-27T00:46:13.225Z,50.30
2019-02-27T00:48:43.157Z,50.30
2019-02-27T00:51:12.907Z,50.10
2019-02-27T00:53:42.646Z,50.30
2019-02-27T00:56:12.802Z,50.30
2019-02-27T00:58:42.682Z,50.30
2019-02-27T01:01:12.636Z,50.20
2019-02-27T01:03:42.794Z,50.10
2019-02-27T01:06:14.804Z,49.70
2019-02-27T01:08:43.893Z,49.60
2019-02-27T01:11:13.375Z,49.80
2019-02-27T01:13:42.782Z,49.60
2019-02-27T01:16:12.243Z,49.40
2019-02-27T01:18:41.681Z,49.10
2019-02-27T01:21:11.107Z,49.00
2019-02-27T01:23:43.717Z,49.20
2019-02-27T01:26:11.650Z,49.20
2019-02-27T01:28:44.649Z,49.20
2019-02-27T01:31:12.213Z,48.90
2019-02-27T01:33:41.617Z,48.80
2019-02-27T01:36:10.977Z,49.00
2019-02-27T01:38:40.348Z,49.10
2019-02-27T01:41:09.780Z,48.60
2019-02-27T01:43:40.057Z,48.20
2019-02-27T01:46:10.048Z,48.00
2019-02-27T01:48:42.568Z,48.20
2019-02-27T01:51:10.852Z,48.40
2019-02-27T01:53:40.686Z,48.20
2019-02-27T01:56:10.722Z,48.70
2019-02-27T01:58:43.313Z,47.90
2019-02-27T02:01:11.387Z,48.10
2019-02-27T02:03:40.948Z,48.10
2019-02-27T02:06:10.385Z,48.70
2019-02-27T02:08:39.724Z,48.10
2019-02-27T02:11:09.358Z,48.30
2019-02-27T02:14:06.661Z,48.30
2019-02-27T02:17:14.137Z,48.40
2019-02-27T02:20:20.537Z,48.50
2019-02-27T02:23:25.046Z,49.20
2019-02-27T02:26:23.547Z,49.30
2019-02-27T02:29:31.950Z,49.40
2019-02-27T02:32:17.152Z,49.50
2019-02-27T02:35:32.318Z,49.60
2019-02-27T02:38:41.766Z,49.60
2019-02-27T02:41:37.446Z,49.50
2019-02-27T02:44:47.224Z,49.60
2019-02-27T02:47:42.293Z,49.60
2019-02-27T02:51:29.088Z,49.20
2019-02-27T02:54:37.816Z,49.30
2019-02-27T02:57:25.392Z,49.30
2019-02-27T03:00:24.289Z,49.10
2019-02-27T03:03:22.152Z,49.20
2019-02-27T03:06:14.403Z,49.10
2019-02-27T03:09:09.396Z,49.10
2019-02-27T03:12:19.871Z,49.10
2019-02-27T03:15:17.647Z,49.10
2019-02-27T03:18:19.616Z,49.00
2019-02-27T03:21:01.484Z,49.00
2019-02-27T03:24:28.295Z,48.90
2019-02-27T03:27:32.136Z,49.00
2019-02-27T03:30:39.393Z,48.80
2019-02-27T03:33:50.367Z,48.70
2019-02-27T03:37:03.840Z,48.40
2019-02-27T03:40:10.681Z,48.40
2019-02-27T03:43:16.806Z,48.20
2019-02-27T03:46:27.303Z,48.30
2019-02-27T03:49:40.963Z,48.90
2019-02-27T03:52:36.524Z,48.80
2019-02-27T03:55:56.617Z,48.60
2019-02-27T03:59:07.470Z,48.30
2019-02-27T04:02:30.183Z,48.30
2019-02-27T04:05:42.101Z,48.30
2019-02-27T04:08:50.596Z,48.20
2019-02-27T04:11:20.013Z,48.30
2019-02-27T04:13:49.430Z,48.70
2019-02-27T04:16:18.883Z,48.50
2019-02-27T04:18:48.365Z,48.40
2019-02-27T04:21:17.982Z,48.40
2019-02-27T04:23:49.013Z,48.20
2019-02-27T04:26:19.402Z,48.20
2019-02-27T04:28:48.963Z,48.10
2019-02-27T04:31:18.371Z,47.90
2019-02-27T04:33:47.889Z,47.60
2019-02-27T04:36:17.226Z,47.60
2019-02-27T04:38:46.570Z,47.60
2019-02-27T04:41:18.059Z,47.60
2019-02-27T04:43:47.095Z,47.30
2019-02-27T04:46:18.850Z,47.10
2019-02-27T04:48:47.598Z,47.00
2019-02-27T04:51:17.727Z,46.10
2019-02-27T04:53:47.112Z,46.00
2019-02-27T04:56:16.515Z,46.60
2019-02-27T04:58:45.911Z,47.50
2019-02-27T05:01:15.277Z,47.80
2019-02-27T05:03:44.714Z,47.70
2019-02-27T05:06:14.537Z,47.40
2019-02-27T05:08:45.205Z,47.40
2019-02-27T05:11:14.869Z,47.40
2019-02-27T05:13:44.304Z,47.20
2019-02-27T05:16:14.161Z,47.20
2019-02-27T05:18:44.420Z,47.00
2019-02-27T05:21:13.839Z,46.80
2019-02-27T05:23:43.312Z,46.70
2019-02-27T05:26:12.850Z,46.70
2019-02-27T05:28:42.239Z,46.70
2019-02-27T05:31:11.692Z,46.30
2019-02-27T05:33:41.140Z,46.40
2019-02-27T05:36:10.523Z,46.40
2019-02-27T05:38:41.022Z,46.40
2019-02-27T05:41:11.076Z,46.30
2019-02-27T05:43:40.608Z,46.30
2019-02-27T05:46:09.980Z,46.50
2019-02-27T05:48:39.406Z,46.50
2019-02-27T05:51:10.691Z,46.30
2019-02-27T05:53:39.888Z,46.30
2019-02-27T05:56:09.365Z,46.20
2019-02-27T05:58:38.872Z,46.00
2019-02-27T06:01:08.296Z,45.90
2019-02-27T06:03:37.674Z,45.70
2019-02-27T06:06:11.521Z,45.60
2019-02-27T06:08:38.243Z,45.60
2019-02-27T06:11:07.692Z,45.60
2019-02-27T06:13:37.153Z,45.50
2019-02-27T06:16:08.942Z,45.70
2019-02-27T06:18:37.655Z,45.80
2019-02-27T06:21:07.002Z,46.00
2019-02-27T06:23:37.846Z,46.10
2019-02-27T06:26:07.532Z,45.90
2019-02-27T06:28:36.952Z,45.80
2019-02-27T06:31:06.453Z,45.60
2019-02-27T06:33:35.870Z,45.50
2019-02-27T06:36:07.602Z,45.20
2019-02-27T06:38:36.405Z,45.50
2019-02-27T06:41:05.839Z,45.70
2019-02-27T06:43:35.211Z,45.90
2019-02-27T06:46:04.683Z,45.80
2019-02-27T06:48:34.121Z,46.10
2019-02-27T06:51:03.551Z,46.20
2019-02-27T06:53:33.033Z,46.30
2019-02-27T06:56:03.390Z,46.40
2019-02-27T06:58:33.961Z,46.40
2019-02-27T07:01:03.438Z,46.40
2019-02-27T07:03:33.042Z,46.30
2019-02-27T07:06:02.470Z,46.20
2019-02-27T07:08:31.918Z,46.20
2019-02-27T07:11:10.474Z,46.50
2019-02-27T07:13:32.404Z,46.30
2019-02-27T07:16:01.861Z,46.20
2019-02-27T07:18:31.237Z,45.90
2019-02-27T07:21:00.686Z,45.90
2019-02-27T07:23:30.066Z,46.30
2019-02-27T07:25:59.497Z,46.30
2019-02-27T07:28:28.954Z,45.60
2019-02-27T07:30:58.369Z,44.00
2019-02-27T07:33:27.820Z,44.80
2019-02-27T07:35:57.209Z,45.00
2019-02-27T07:38:26.679Z,45.20
2019-02-27T07:40:56.228Z,45.60
2019-02-27T07:43:25.590Z,45.40
2019-02-27T07:45:54.971Z,44.30
2019-02-27T07:48:24.948Z,44.60
2019-02-27T07:50:54.515Z,46.40
2019-02-27T07:53:25.622Z,46.70
2019-02-27T07:55:55.029Z,47.00
2019-02-27T07:58:24.361Z,48.40
2019-02-27T08:00:53.720Z,49.30
2019-02-27T08:03:23.090Z,52.40
2019-02-27T08:05:52.500Z,51.90
2019-02-27T08:08:23.609Z,51.70
2019-02-27T08:10:53.024Z,51.60
2019-02-27T08:13:22.485Z,52.20
2019-02-27T08:15:51.873Z,52.40
2019-02-27T08:18:29.762Z,51.50
2019-02-27T08:20:54.498Z,52.40
2019-02-27T08:23:23.774Z,53.20
2019-02-27T08:25:53.358Z,53.20
2019-02-27T08:28:22.712Z,51.00
2019-02-27T08:30:52.069Z,49.60
2019-02-27T08:33:21.422Z,48.90
2019-02-27T08:35:50.831Z,46.30
2019-02-27T08:38:20.249Z,43.70
2019-02-27T08:40:49.672Z,43.40
2019-02-27T08:43:19.098Z,43.80
2019-02-27T08:45:48.455Z,44.50
2019-02-27T08:48:18.143Z,44.70
2019-02-27T08:50:47.829Z,45.30
2019-02-27T08:53:17.262Z,45.50
2019-02-27T08:55:46.713Z,47.50
2019-02-27T08:58:17.576Z,52.10
2019-02-27T09:00:48.160Z,53.00
2019-02-27T09:03:20.667Z,52.30
2019-02-27T09:05:51.079Z,51.60
2019-02-27T09:08:19.959Z,51.00
2019-02-27T09:10:49.469Z,50.40
2019-02-27T09:13:18.925Z,50.10
2019-02-27T09:15:48.350Z,50.10
2019-02-27T09:18:17.750Z,49.10
2019-02-27T09:20:47.164Z,48.90
2019-02-27T09:23:18.298Z,49.20
2019-02-27T09:25:47.858Z,49.60
2019-02-27T09:28:17.203Z,49.70
2019-02-27T09:30:46.666Z,50.20
2019-02-27T09:33:17.003Z,50.40
2019-02-27T09:35:47.129Z,50.00
2019-02-27T09:38:16.574Z,50.00
2019-02-27T09:40:45.930Z,50.70
2019-02-27T09:43:15.400Z,50.70
2019-02-27T09:45:46.506Z,51.90
2019-02-27T09:48:16.004Z,52.30
2019-02-27T09:50:48.216Z,52.80
2019-02-27T09:53:17.093Z,52.20
2019-02-27T09:55:46.550Z,51.60
2019-02-27T09:58:15.927Z,53.10
2019-02-27T10:00:51.086Z,53.20
2019-02-27T10:03:21.543Z,52.20
2019-02-27T10:05:51.096Z,51.20
2019-02-27T10:08:20.448Z,50.10
2019-02-27T10:10:49.887Z,50.20
2019-02-27T10:13:19.327Z,51.80
2019-02-27T10:15:48.840Z,51.20
2019-02-27T10:18:18.989Z,51.30
2019-02-27T10:20:49.371Z,51.10
2019-02-27T10:23:18.847Z,52.00
2019-02-27T10:25:49.873Z,53.00
2019-02-27T10:28:19.399Z,53.30
2019-02-27T10:30:50.126Z,54.00
2019-02-27T10:33:19.869Z,53.70
2019-02-27T10:35:49.528Z,53.90
2019-02-27T10:38:18.980Z,53.20
2019-02-27T10:40:48.392Z,52.20
2019-02-27T10:43:17.825Z,52.00
2019-02-27T10:45:49.283Z,52.30
2019-02-27T10:48:18.391Z,51.10
2019-02-27T10:50:47.808Z,50.70
2019-02-27T10:53:17.171Z,48.30
2019-02-27T10:55:49.278Z,47.80
2019-02-27T10:58:17.692Z,48.40
2019-02-27T11:00:48.605Z,47.30
2019-02-27T11:03:18.027Z,47.60
2019-02-27T11:05:52.363Z,46.20
2019-02-27T11:08:18.554Z,45.80
2019-02-27T11:10:48.040Z,45.90
2019-02-27T11:13:17.513Z,45.10
2019-02-27T11:15:47.027Z,45.70
2019-02-27T11:18:16.444Z,45.60
2019-02-27T11:20:45.971Z,45.60
2019-02-27T11:23:15.397Z,45.70
2019-02-27T11:25:44.797Z,46.10
2019-02-27T11:28:14.135Z,46.50
2019-02-27T11:30:43.555Z,45.80
2019-02-27T11:33:24.762Z,45.50
2019-02-27T11:35:45.895Z,43.60
2019-02-27T11:38:15.214Z,43.10
2019-02-27T11:40:44.587Z,43.50
2019-02-27T11:43:14.006Z,44.20
2019-02-27T11:45:43.409Z,44.50
2019-02-27T11:48:12.759Z,46.20
2019-02-27T11:50:42.197Z,46.50
2019-02-27T11:53:11.599Z,45.60
2019-02-27T11:55:40.986Z,45.00
2019-02-27T11:58:10.482Z,45.20
2019-02-27T12:00:39.945Z,45.00
2019-02-27T12:03:11.112Z,44.80
2019-02-27T12:05:40.414Z,43.80
2019-02-27T12:08:11.339Z,43.60
2019-02-27T12:10:40.975Z,44.50
2019-02-27T12:13:10.493Z,45.00
2019-02-27T12:15:43.293Z,46.10
2019-02-27T12:18:10.989Z,46.70
2019-02-27T12:20:40.360Z,47.00
2019-02-27T12:23:10.152Z,46.90
2019-02-27T12:25:40.150Z,46.40
2019-02-27T12:28:10.754Z,45.20
2019-02-27T12:30:40.198Z,45.00
2019-02-27T12:33:09.726Z,43.40
2019-02-27T12:35:39.134Z,43.70
2019-02-27T12:38:08.640Z,44.00
2019-02-27T12:40:38.107Z,44.80
2019-02-27T12:43:07.603Z,45.30
2019-02-27T12:45:37.036Z,45.30
2019-02-27T12:48:06.411Z,45.20
2019-02-27T12:50:35.906Z,45.60
2019-02-27T12:53:05.752Z,45.20
2019-02-27T12:55:36.320Z,45.50
2019-02-27T12:58:05.932Z,46.80
2019-02-27T13:00:35.719Z,45.80
2019-02-27T13:03:08.248Z,45.80
2019-02-27T13:05:36.262Z,45.60
2019-02-27T13:08:05.775Z,45.20
2019-02-27T13:10:35.272Z,45.30
2019-02-27T13:13:04.751Z,45.10
2019-02-27T13:15:34.075Z,45.40
2019-02-27T13:18:03.466Z,45.70
2019-02-27T13:20:33.215Z,45.10
2019-02-27T13:23:05.181Z,45.70
2019-02-27T13:25:33.740Z,44.70
2019-02-27T13:28:03.161Z,45.30
2019-02-27T13:30:32.590Z,45.70
2019-02-27T13:33:02.276Z,46.10
2019-02-27T13:35:31.954Z,44.30
2019-02-27T13:38:01.415Z,44.10
2019-02-27T13:40:35.363Z,43.70
2019-02-27T13:43:02.058Z,43.70
2019-02-27T13:45:31.582Z,44.10
2019-02-27T13:48:04.965Z,43.60
2019-02-27T13:50:32.157Z,43.20
2019-02-27T13:53:01.611Z,42.50
2019-02-27T13:55:31.042Z,42.30
2019-02-27T13:58:03.431Z,42.20
2019-02-27T14:00:31.523Z,43.10
2019-02-27T14:03:00.933Z,42.80
2019-02-27T14:05:34.975Z,42.60
2019-02-27T14:08:01.666Z,42.80
2019-02-27T14:10:31.150Z,43.10
2019-02-27T14:13:00.665Z,43.10
2019-02-27T14:15:31.602Z,42.90
2019-02-27T14:18:01.496Z,42.20
2019-02-27T14:20:30.874Z,42.50
2019-02-27T14:23:19.395Z,42.00
2019-02-27T14:25:48.856Z,42.50
2019-02-27T14:28:20.764Z,41.60
2019-02-27T14:30:49.358Z,41.80
2019-02-27T14:33:19.352Z,41.90
2019-02-27T14:35:49.786Z,42.00
2019-02-27T14:38:21.858Z,42.20
2019-02-27T14:40:50.249Z,42.60
2019-02-27T14:43:19.673Z,42.50
2019-02-27T14:45:50.734Z,42.70
2019-02-27T14:48:21.412Z,42.00
2019-02-27T14:50:51.316Z,41.30
2019-02-27T14:53:20.742Z,41.70
2019-02-27T14:55:50.213Z,40.00
2019-02-27T14:58:24.075Z,39.50
2019-02-27T15:00:50.771Z,39.90
2019-02-27T15:03:20.223Z,40.20
2019-02-27T15:05:49.618Z,40.00
2019-02-27T15:08:19.073Z,40.00
2019-02-27T15:10:48.529Z,40.30
2019-02-27T15:13:17.930Z,40.10
2019-02-27T15:15:47.348Z,39.40
2019-02-27T15:18:16.743Z,39.20
2019-02-27T15:20:46.153Z,39.00
2019-02-27T15:23:15.619Z,39.70
2019-02-27T15:25:45.051Z,40.00
2019-02-27T15:28:14.492Z,40.60
2019-02-27T15:30:46.466Z,41.20
2019-02-27T15:33:16.365Z,40.80
2019-02-27T15:35:46.184Z,41.00
2019-02-27T15:38:15.635Z,41.10
2019-02-27T15:40:45.253Z,40.40
2019-02-27T15:43:17.370Z,40.40
2019-02-27T15:45:47.882Z,40.70
2019-02-27T15:48:17.307Z,41.00
2019-02-27T15:50:46.669Z,41.30
2019-02-27T15:53:16.138Z,41.30
2019-02-27T15:55:45.631Z,41.30
2019-02-27T15:58:15.011Z,41.10
2019-02-27T16:00:44.501Z,41.10
2019-02-27T16:03:13.932Z,41.40
2019-02-27T16:05:43.298Z,41.70
2019-02-27T16:08:12.691Z,41.60
2019-02-27T16:10:43.704Z,41.80
2019-02-27T16:13:13.306Z,41.80
2019-02-27T16:15:44.685Z,42.10
2019-02-27T16:18:13.852Z,42.60
2019-02-27T16:20:43.311Z,42.90
2019-02-27T16:23:12.795Z,43.30
2019-02-27T16:25:42.284Z,43.50
2019-02-27T16:28:14.107Z,43.50
2019-02-27T16:30:42.816Z,43.80
2019-02-27T16:33:12.228Z,43.70
2019-02-27T16:35:42.971Z,43.60
2019-02-27T16:38:13.275Z,43.80
2019-02-27T16:40:42.754Z,43.90
2019-02-27T16:43:13.561Z,43.80
2019-02-27T16:45:43.371Z,44.00
2019-02-27T16:48:12.778Z,44.30
2019-02-27T16:50:42.121Z,44.20
2019-02-27T16:53:16.105Z,44.00
2019-02-27T16:55:42.703Z,44.30
2019-02-27T16:58:12.122Z,44.40
2019-02-27T17:00:41.610Z,44.70
2019-02-27T17:03:13.417Z,44.80
2019-02-27T17:05:43.214Z,45.10
2019-02-27T17:08:14.971Z,45.10
2019-02-27T17:10:44.452Z,45.40
2019-02-27T17:13:15.447Z,45.60
2019-02-27T17:15:45.035Z,45.80
2019-02-27T17:18:14.627Z,46.00
2019-02-27T17:20:46.572Z,46.10
2019-02-27T17:23:15.195Z,46.40
2019-02-27T17:25:44.576Z,46.60
2019-02-27T17:28:14.113Z,47.40
2019-02-27T17:30:43.547Z,47.80
2019-02-27T17:33:12.975Z,48.00
2019-02-27T17:35:42.389Z,48.20
2019-02-27T17:38:13.698Z,48.50
2019-02-27T17:40:43.019Z,48.90
2019-02-27T17:43:12.400Z,49.20
2019-02-27T17:45:44.319Z,49.00
2019-02-27T17:48:13.255Z,49.00
2019-02-27T17:50:42.720Z,49.00
2019-02-27T17:53:12.174Z,49.20
2019-02-27T17:55:42.574Z,49.30
2019-02-27T17:58:12.242Z,49.40
2019-02-27T18:00:43.188Z,49.50
2019-02-27T18:03:12.591Z,49.60
2019-02-27T18:05:42.063Z,49.50
2019-02-27T18:08:15.911Z,49.70
2019-02-27T18:10:42.596Z,49.60
2019-02-27T18:13:11.965Z,49.80
2019-02-27T18:15:41.417Z,49.80
2019-02-27T18:18:10.867Z,49.90
2019-02-27T18:20:40.327Z,49.90
2019-02-27T18:23:09.723Z,50.00
2019-02-27T18:25:42.133Z,49.90
2019-02-27T18:28:10.714Z,49.90
2019-02-27T18:30:40.071Z,50.10
2019-02-27T18:33:13.588Z,50.20
2019-02-27T18:35:40.647Z,50.10
2019-02-27T18:38:10.102Z,50.10
2019-02-27T18:40:42.646Z,50.30
2019-02-27T18:43:10.698Z,50.40
2019-02-27T18:45:40.199Z,50.60
2019-02-27T18:48:10.088Z,50.60
2019-02-27T18:50:40.515Z,50.70
2019-02-27T18:53:13.071Z,51.00
2019-02-27T18:55:41.001Z,51.00
2019-02-27T18:58:10.466Z,51.30
2019-02-27T19:00:40.133Z,51.60
2019-02-27T19:03:09.513Z,51.40
2019-02-27T19:05:41.797Z,51.50
2019-02-27T19:08:10.333Z,51.60
2019-02-27T19:10:42.471Z,51.70
2019-02-27T19:13:11.358Z,51.60
2019-02-27T19:15:46.318Z,51.80
2019-02-27T19:18:15.119Z,51.90
2019-02-27T19:20:44.548Z,52.10
2019-02-27T19:23:17.244Z,52.00
2019-02-27T19:25:45.415Z,52.00
2019-02-27T19:28:15.010Z,52.00
2019-02-27T19:30:44.435Z,52.00
2019-02-27T19:33:14.058Z,52.10
2019-02-27T19:35:44.242Z,52.00
2019-02-27T19:38:13.909Z,52.20
2019-02-27T19:40:43.594Z,52.10
2019-02-27T19:43:13.185Z,52.20
2019-02-27T19:45:43.145Z,52.30
2019-02-27T19:48:12.999Z,52.30
2019-02-27T19:50:46.275Z,52.30
2019-02-27T19:53:14.881Z,52.50
2019-02-27T19:55:44.841Z,52.40
2019-02-27T19:58:18.157Z,52.40
2019-02-27T20:00:48.718Z,52.40
2019-02-27T20:03:18.660Z,52.40
2019-02-27T20:05:50.627Z,52.40
2019-02-27T20:08:20.796Z,52.30
2019-02-27T20:10:51.107Z,52.30
2019-02-27T20:13:21.231Z,52.30
2019-02-27T20:15:51.436Z,52.20
2019-02-27T20:18:23.429Z,52.20
2019-02-27T20:20:53.535Z,52.20
2019-02-27T20:23:25.717Z,52.20
2019-02-27T20:25:56.177Z,52.30
2019-02-27T20:28:29.026Z,52.30
2019-02-27T20:30:59.226Z,52.30
2019-02-27T20:33:29.321Z,53.00
2019-02-27T20:35:59.152Z,52.50
2019-02-27T20:38:29.301Z,52.50
2019-02-27T20:40:59.656Z,52.50
2019-02-27T20:43:30.235Z,52.50
2019-02-27T20:46:00.628Z,52.60
2019-02-27T20:48:32.238Z,52.60
2019-02-27T20:51:02.710Z,52.60
2019-02-27T20:53:33.540Z,52.70
2019-02-27T20:56:03.709Z,52.70
2019-02-27T20:58:34.218Z,52.80
2019-02-27T21:01:09.964Z,52.80
2019-02-27T21:03:36.103Z,52.80
2019-02-27T21:06:06.063Z,52.70
2019-02-27T21:08:36.174Z,52.60
2019-02-27T21:11:06.497Z,52.60
2019-02-27T21:13:35.914Z,52.50
2019-02-27T21:16:09.516Z,52.40
2019-02-27T21:18:37.643Z,52.40
2019-02-27T21:21:07.147Z,52.30
2019-02-27T21:23:36.878Z,52.30
2019-02-27T21:26:06.374Z,52.20
2019-02-27T21:28:35.889Z,52.20
2019-02-27T21:31:05.355Z,52.10
2019-02-27T21:33:34.893Z,52.10
2019-02-27T21:36:04.499Z,52.10
2019-02-27T21:38:33.847Z,52.10
2019-02-27T21:41:03.351Z,52.10
2019-02-27T21:43:32.748Z,52.20
2019-02-27T21:46:02.114Z,52.10
2019-02-27T21:48:31.447Z,51.90
2019-02-27T21:51:00.814Z,51.90
2019-02-27T21:53:30.198Z,51.90
2019-02-27T21:55:59.705Z,51.70
2019-02-27T21:58:31.933Z,51.60
2019-02-27T22:01:00.268Z,51.50
2019-02-27T22:03:29.656Z,51.40
2019-02-27T22:05:58.994Z,51.30
2019-02-27T22:08:28.434Z,51.30
2019-02-27T22:10:57.817Z,51.40
2019-02-27T22:13:29.629Z,51.30
2019-02-27T22:15:58.335Z,51.40
2019-02-27T22:18:27.825Z,51.30
2019-02-27T22:20:59.813Z,51.30
2019-02-27T22:23:34.840Z,51.30
2019-02-27T22:26:04.386Z,51.30
2019-02-27T22:28:34.084Z,51.40
2019-02-27T22:31:06.763Z,51.30
2019-02-27T22:33:34.552Z,51.40
2019-02-27T22:36:03.942Z,51.60
2019-02-27T22:38:34.547Z,51.60
2019-02-27T22:41:04.236Z,51.60
2019-02-27T22:43:35.093Z,51.60
2019-02-27T22:46:04.704Z,51.70
2019-02-27T22:48:34.107Z,51.60
2019-02-27T22:51:03.585Z,51.60
2019-02-27T22:53:33.002Z,51.60
2019-02-27T22:56:02.447Z,51.60
2019-02-27T22:58:31.923Z,51.60
2019-02-27T23:01:09.964Z,51.50
2019-02-27T23:03:54.996Z,51.30
2019-02-27T23:06:25.226Z,51.20
2019-02-27T23:08:55.166Z,51.10
2019-02-27T23:11:24.673Z,51.00
2019-02-27T23:13:54.104Z,50.90
2019-02-27T23:16:23.491Z,50.80
2019-02-27T23:18:53.030Z,50.80
2019-02-27T23:21:22.467Z,50.70
2019-02-27T23:23:51.940Z,50.70
2019-02-27T23:26:21.325Z,50.60
2019-02-27T23:28:50.718Z,50.60
2019-02-27T23:31:23.424Z,50.60
2019-02-27T23:33:51.185Z,50.60
2019-02-27T23:36:21.885Z,50.70
2019-02-27T23:38:51.796Z,50.70
2019-02-27T23:41:23.313Z,50.80
2019-02-27T23:43:52.322Z,50.70
2019-02-27T23:46:21.741Z,50.70
2019-02-27T23:48:51.185Z,51.30
2019-02-27T23:51:20.515Z,51.50
2019-02-27T23:53:49.901Z,51.30
2019-02-27T23:56:20.563Z,51.20
2019-02-27T23:58:50.281Z,51.30
